createdAt,value
2018-03-27T05:12:14.220Z,43.20
2018-03-27T05:14:40.441Z,43.20
2018-03-27T05:17:06.717Z,43.20
2018-03-27T05:19:32.950Z,43.60
2018-03-27T05:21:59.193Z,43.20
2018-03-27T05:24:25.419Z,42.80
2018-03-27T05:26:51.678Z,42.80
2018-03-27T05:29:18.013Z,42.60
2018-03-27T05:31:44.231Z,42.60
2018-03-27T05:34:10.482Z,41.10
2018-03-27T05:36:36.725Z,42.40
2018-03-27T05:39:02.982Z,42.10
2018-03-27T05:41:29.310Z,41.80
2018-03-27T05:43:55.654Z,41.80
2018-03-27T05:46:21.876Z,41.90
2018-03-27T05:48:48.124Z,41.70
2018-03-27T05:51:14.389Z,41.50
2018-03-27T05:53:40.658Z,42.10
2018-03-27T05:56:06.924Z,42.20
2018-03-27T05:58:33.161Z,42.30
2018-03-27T06:00:59.396Z,42.30
2018-03-27T06:03:26.355Z,42.30
2018-03-27T06:05:52.620Z,42.40
2018-03-27T06:08:18.882Z,42.40
2018-03-27T06:10:45.165Z,42.50
2018-03-27T06:13:11.422Z,42.40
2018-03-27T06:15:38.367Z,42.50
2018-03-27T06:18:04.702Z,42.50
2018-03-27T06:20:30.932Z,42.50
2018-03-27T06:22:57.191Z,42.50
2018-03-27T06:25:23.427Z,42.50
2018-03-27T06:27:50.445Z,42.60
2018-03-27T06:30:16.978Z,42.60
2018-03-27T06:32:43.420Z,42.60
2018-03-27T06:35:09.653Z,42.60
2018-03-27T06:37:35.886Z,42.60
2018-03-27T06:40:02.122Z,42.60
2018-03-27T06:42:28.379Z,42.60
2018-03-27T06:44:54.605Z,42.60
2018-03-27T06:47:20.901Z,43.20
2018-03-27T06:49:47.149Z,42.60
2018-03-27T06:52:13.374Z,42.60
2018-03-27T06:54:40.706Z,42.70
2018-03-27T06:57:07.522Z,42.60
2018-03-27T06:59:33.886Z,42.60
2018-03-27T07:02:00.871Z,42.60
2018-03-27T07:04:27.231Z,42.60
2018-03-27T07:06:53.526Z,42.70
2018-03-27T07:09:19.769Z,42.70
2018-03-27T07:11:46.763Z,42.70
2018-03-27T07:14:13.114Z,42.70
2018-03-27T07:16:39.334Z,42.70
2018-03-27T07:19:05.802Z,42.80
2018-03-27T07:21:32.035Z,42.80
2018-03-27T07:23:58.259Z,42.80
2018-03-27T07:26:24.516Z,42.80
2018-03-27T07:28:50.743Z,42.90
2018-03-27T07:31:17.011Z,42.90
2018-03-27T07:33:44.019Z,43.00
2018-03-27T07:36:10.270Z,42.90
2018-03-27T07:38:36.511Z,42.90
2018-03-27T07:41:02.754Z,42.90
2018-03-27T07:43:29.030Z,43.00
2018-03-27T07:45:55.263Z,42.90
2018-03-27T07:48:21.489Z,42.90
2018-03-27T07:50:48.508Z,43.00
2018-03-27T07:53:15.091Z,43.60
2018-03-27T07:55:41.782Z,42.90
2018-03-27T07:58:08.004Z,42.90
2018-03-27T08:00:34.983Z,42.90
2018-03-27T08:03:01.231Z,43.00
2018-03-27T08:05:27.474Z,42.90
2018-03-27T08:07:54.529Z,43.00
2018-03-27T08:10:21.511Z,43.00
2018-03-27T08:12:47.728Z,42.90
2018-03-27T08:15:13.971Z,43.00
2018-03-27T08:17:40.205Z,43.00
2018-03-27T08:20:06.539Z,43.10
2018-03-27T08:22:32.800Z,43.10
2018-03-27T08:24:59.026Z,43.00
2018-03-27T08:27:25.248Z,43.00
2018-03-27T08:29:51.503Z,43.00
2018-03-27T08:32:17.790Z,43.10
2018-03-27T08:34:44.033Z,43.00
2018-03-27T08:37:10.257Z,43.10
2018-03-27T08:39:37.296Z,43.10
2018-03-27T08:42:03.523Z,43.10
2018-03-27T08:44:29.803Z,43.10
2018-03-27T08:46:56.027Z,43.10
2018-03-27T08:49:23.034Z,43.10
2018-03-27T08:51:49.268Z,43.10
2018-03-27T08:54:15.510Z,43.10
2018-03-27T08:56:41.795Z,43.10
2018-03-27T08:59:08.864Z,43.10
2018-03-27T09:01:35.070Z,43.10
2018-03-27T09:04:02.045Z,43.10
2018-03-27T09:06:28.262Z,43.20
2018-03-27T09:08:55.342Z,43.20
2018-03-27T09:11:21.587Z,43.20
2018-03-27T09:13:47.841Z,43.20
2018-03-27T09:16:14.583Z,43.20
2018-03-27T09:18:40.838Z,43.20
2018-03-27T09:21:07.107Z,43.10
2018-03-27T09:23:33.343Z,43.20
2018-03-27T09:26:00.285Z,43.20
2018-03-27T09:28:27.275Z,43.20
2018-03-27T09:30:53.503Z,43.10
2018-03-27T09:33:19.911Z,43.20
2018-03-27T09:35:46.177Z,43.10
2018-03-27T09:38:12.738Z,43.20
2018-03-27T09:40:38.981Z,43.20
2018-03-27T09:43:05.222Z,43.20
2018-03-27T09:45:31.516Z,43.10
2018-03-27T09:47:57.743Z,43.20
2018-03-27T09:50:24.175Z,43.20
2018-03-27T09:52:50.422Z,43.10
2018-03-27T09:55:16.664Z,43.20
2018-03-27T09:57:43.187Z,43.20
2018-03-27T10:00:10.162Z,43.20
2018-03-27T10:02:36.387Z,43.20
2018-03-27T10:05:02.620Z,43.20
2018-03-27T10:07:28.847Z,43.20
2018-03-27T10:09:55.862Z,43.20
2018-03-27T10:12:22.102Z,43.10
2018-03-27T10:14:48.361Z,43.50
2018-03-27T10:17:14.605Z,43.20
2018-03-27T10:19:40.845Z,43.80
2018-03-27T10:22:07.151Z,43.20
2018-03-27T10:24:34.163Z,43.20
2018-03-27T10:27:00.449Z,43.20
2018-03-27T10:29:26.672Z,43.20
2018-03-27T10:31:53.040Z,43.20
2018-03-27T10:34:19.471Z,43.20
2018-03-27T10:36:45.698Z,43.20
2018-03-27T10:39:12.047Z,43.20
2018-03-27T10:41:38.276Z,43.20
2018-03-27T10:44:04.497Z,43.20
2018-03-27T10:46:31.526Z,43.20
2018-03-27T10:48:58.495Z,43.20
2018-03-27T10:51:24.711Z,43.20
2018-03-27T10:53:50.942Z,43.20
2018-03-27T10:56:17.186Z,43.20
2018-03-27T10:58:43.870Z,43.30
2018-03-27T11:01:10.300Z,43.20
2018-03-27T11:03:36.538Z,43.20
2018-03-27T11:06:03.143Z,43.30
2018-03-27T11:08:29.369Z,43.20
2018-03-27T11:10:55.630Z,43.20
2018-03-27T11:13:23.218Z,43.30
2018-03-27T11:15:49.457Z,43.20
2018-03-27T11:18:15.683Z,43.20
2018-03-27T11:20:41.929Z,43.20
2018-03-27T11:23:08.240Z,43.20
2018-03-27T11:25:34.488Z,43.20
2018-03-27T11:28:00.713Z,43.10
2018-03-27T11:30:27.721Z,43.20
2018-03-27T11:32:54.536Z,43.20
2018-03-27T11:35:20.812Z,43.20
2018-03-27T11:37:47.062Z,43.20
2018-03-27T11:40:13.281Z,43.20
2018-03-27T11:42:39.534Z,43.20
2018-03-27T11:45:05.795Z,43.20
2018-03-27T11:47:32.070Z,43.20
2018-03-27T11:49:58.291Z,43.20
2018-03-27T11:52:24.605Z,43.20
2018-03-27T11:54:50.843Z,43.20
2018-03-27T11:57:17.063Z,43.20
2018-03-27T11:59:43.315Z,43.20
2018-03-27T12:02:09.560Z,43.20
2018-03-27T12:04:35.813Z,43.20
2018-03-27T12:07:02.051Z,43.20
2018-03-27T12:09:28.358Z,43.20
2018-03-27T12:11:54.623Z,43.30
2018-03-27T12:14:20.879Z,43.20
2018-03-27T12:16:47.155Z,43.20
2018-03-27T12:19:13.388Z,43.30
2018-03-27T12:21:39.631Z,43.20
2018-03-27T12:24:06.048Z,43.20
2018-03-27T12:26:33.067Z,43.30
2018-03-27T12:28:59.317Z,43.30
2018-03-27T12:31:25.530Z,43.30
2018-03-27T12:33:51.770Z,43.20
2018-03-27T12:36:18.084Z,43.20
2018-03-27T12:38:44.298Z,43.20
2018-03-27T12:41:10.539Z,43.30
2018-03-27T12:43:36.791Z,43.20
2018-03-27T12:46:03.029Z,43.20
2018-03-27T12:48:29.282Z,43.20
2018-03-27T12:50:56.151Z,43.20
2018-03-27T12:53:22.374Z,43.10
2018-03-27T12:55:48.595Z,43.20
2018-03-27T12:58:14.821Z,42.90
2018-03-27T13:00:41.091Z,43.20
2018-03-27T13:03:08.100Z,43.20
2018-03-27T13:05:34.354Z,43.20
2018-03-27T13:08:00.608Z,43.20
2018-03-27T13:10:26.849Z,43.20
2018-03-27T13:12:53.963Z,43.30
2018-03-27T13:15:20.212Z,43.30
2018-03-27T13:17:46.441Z,43.30
2018-03-27T13:20:12.873Z,43.40
2018-03-27T13:22:39.098Z,43.40
2018-03-27T13:25:05.415Z,43.40
2018-03-27T13:27:32.343Z,43.40
2018-03-27T13:29:58.635Z,43.40
2018-03-27T13:32:25.610Z,43.40
2018-03-27T13:34:52.467Z,43.40
2018-03-27T13:37:19.498Z,43.20
2018-03-27T13:39:45.745Z,43.20
2018-03-27T13:42:13.329Z,43.30
2018-03-27T13:44:40.350Z,43.20
2018-03-27T13:47:06.605Z,43.20
2018-03-27T13:49:33.627Z,43.30
2018-03-27T13:51:59.899Z,43.30
2018-03-27T13:54:26.737Z,43.30
2018-03-27T13:56:52.963Z,43.30
2018-03-27T13:59:19.916Z,43.40
2018-03-27T14:01:46.178Z,43.30
2018-03-27T14:04:12.421Z,43.30
2018-03-27T14:06:38.667Z,43.30
2018-03-27T14:09:04.930Z,43.30
2018-03-27T14:11:31.184Z,43.40
2018-03-27T14:13:57.457Z,44.00
2018-03-27T14:16:23.683Z,43.40
2018-03-27T14:18:49.907Z,43.40
2018-03-27T14:21:16.931Z,43.40
2018-03-27T14:23:43.250Z,43.40
2018-03-27T14:26:09.487Z,43.40
2018-03-27T14:28:36.343Z,43.40
2018-03-27T14:31:02.613Z,43.40
2018-03-27T14:33:28.830Z,43.40
2018-03-27T14:35:55.055Z,43.40
2018-03-27T14:38:21.314Z,43.40
2018-03-27T14:40:47.566Z,43.50
2018-03-27T14:43:14.750Z,43.50
2018-03-27T14:45:41.171Z,43.40
2018-03-27T14:48:07.396Z,43.60
2018-03-27T14:50:33.651Z,43.70
2018-03-27T14:52:59.892Z,44.10
2018-03-27T14:55:26.135Z,44.30
2018-03-27T14:57:52.362Z,44.70
2018-03-27T15:00:18.591Z,45.30
2018-03-27T15:02:44.844Z,45.20
2018-03-27T15:05:11.068Z,45.20
2018-03-27T15:07:37.331Z,45.60
2018-03-27T15:10:03.601Z,45.90
2018-03-27T15:12:29.835Z,45.30
2018-03-27T15:14:56.116Z,45.70
2018-03-27T15:17:22.362Z,46.00
2018-03-27T15:19:48.593Z,45.60
2018-03-27T15:22:14.842Z,44.90
2018-03-27T15:24:41.095Z,44.40
2018-03-27T15:27:07.394Z,44.20
2018-03-27T15:29:33.641Z,44.20
2018-03-27T15:32:00.036Z,44.30
2018-03-27T15:34:26.288Z,44.20
2018-03-27T15:36:52.860Z,44.30
2018-03-27T15:39:19.142Z,44.30
2018-03-27T15:41:46.131Z,44.20
2018-03-27T15:44:12.382Z,44.20
2018-03-27T15:46:38.612Z,44.10
2018-03-27T15:49:05.114Z,44.00
2018-03-27T15:51:31.404Z,43.90
2018-03-27T15:53:57.629Z,43.90
2018-03-27T15:56:23.898Z,43.80
2018-03-27T15:58:50.150Z,43.80
2018-03-27T16:01:16.462Z,43.80
2018-03-27T16:03:42.703Z,43.80
2018-03-27T16:06:09.709Z,43.80
2018-03-27T16:08:35.941Z,43.70
2018-03-27T16:11:03.212Z,43.70
2018-03-27T16:13:29.482Z,43.70
2018-03-27T16:15:55.704Z,43.70
2018-03-27T16:18:21.945Z,43.70
2018-03-27T16:20:48.949Z,44.20
2018-03-27T16:23:15.401Z,43.60
2018-03-27T16:25:41.655Z,43.60
2018-03-27T16:28:07.947Z,43.60
2018-03-27T16:30:34.797Z,43.60
2018-03-27T16:33:01.635Z,43.60
2018-03-27T16:35:27.892Z,43.60
2018-03-27T16:37:54.163Z,43.60
2018-03-27T16:40:21.313Z,43.60
2018-03-27T16:42:47.803Z,43.60
2018-03-27T16:45:14.046Z,43.80
2018-03-27T16:47:40.515Z,43.90
2018-03-27T16:50:06.795Z,43.80
2018-03-27T16:52:33.042Z,43.60
2018-03-27T16:54:59.311Z,43.60
2018-03-27T16:57:25.618Z,44.00
2018-03-27T16:59:51.855Z,44.00
2018-03-27T17:02:18.142Z,44.90
2018-03-27T17:04:44.411Z,44.40
2018-03-27T17:07:10.669Z,45.00
2018-03-27T17:09:36.910Z,45.80
2018-03-27T17:12:03.435Z,46.00
2018-03-27T17:14:29.665Z,45.80
2018-03-27T17:16:56.696Z,45.00
2018-03-27T17:19:22.960Z,45.10
2018-03-27T17:21:49.980Z,45.00
2018-03-27T17:24:16.222Z,44.90
2018-03-27T17:26:42.443Z,44.90
2018-03-27T17:29:08.983Z,45.00
2018-03-27T17:31:35.211Z,45.00
2018-03-27T17:34:01.468Z,45.00
2018-03-27T17:36:27.728Z,45.00
2018-03-27T17:38:53.988Z,45.20
2018-03-27T17:41:20.264Z,45.10
2018-03-27T17:43:47.346Z,44.90
2018-03-27T17:46:13.572Z,45.20
2018-03-27T17:48:40.396Z,45.20
2018-03-27T17:51:06.636Z,45.20
2018-03-27T17:53:32.887Z,45.00
2018-03-27T17:55:59.885Z,45.10
2018-03-27T17:58:26.450Z,45.00
2018-03-27T18:00:52.708Z,45.00
2018-03-27T18:03:18.942Z,44.90
2018-03-27T18:05:45.968Z,44.50
2018-03-27T18:08:12.203Z,44.50
2018-03-27T18:10:38.538Z,44.60
2018-03-27T18:13:04.778Z,44.50
2018-03-27T18:15:31.365Z,44.40
2018-03-27T18:17:57.647Z,44.40
2018-03-27T18:20:23.870Z,44.40
2018-03-27T18:22:50.860Z,44.40
2018-03-27T18:25:17.394Z,44.80
2018-03-27T18:27:45.119Z,44.50
2018-03-27T18:30:11.473Z,44.40
2018-03-27T18:32:38.398Z,44.30
2018-03-27T18:35:05.282Z,44.20
2018-03-27T18:37:32.169Z,44.20
2018-03-27T18:39:58.625Z,44.20
2018-03-27T18:42:24.930Z,44.20
2018-03-27T18:44:51.179Z,44.20
2018-03-27T18:47:17.749Z,44.20
2018-03-27T18:49:44.074Z,44.10
2018-03-27T18:52:10.296Z,44.10
2018-03-27T18:54:36.551Z,44.10
2018-03-27T18:57:02.806Z,44.10
2018-03-27T18:59:29.908Z,44.10
2018-03-27T19:01:56.137Z,44.10
2018-03-27T19:04:22.389Z,44.10
2018-03-27T19:06:49.434Z,44.00
2018-03-27T19:09:16.427Z,44.00
2018-03-27T19:11:42.745Z,44.00
2018-03-27T19:14:08.995Z,44.00
2018-03-27T19:16:35.235Z,44.00
2018-03-27T19:19:01.537Z,44.30
2018-03-27T19:21:28.425Z,44.30
2018-03-27T19:23:54.667Z,44.50
2018-03-27T19:26:20.908Z,44.40
2018-03-27T19:28:47.161Z,44.50
2018-03-27T19:31:13.422Z,44.40
2018-03-27T19:33:39.649Z,44.50
2018-03-27T19:36:06.476Z,44.50
2018-03-27T19:38:33.342Z,44.50
2018-03-27T19:41:00.423Z,44.50
2018-03-27T19:43:27.121Z,44.50
2018-03-27T19:45:53.797Z,44.60
2018-03-27T19:48:20.254Z,44.60
2018-03-27T19:50:46.542Z,44.50
2018-03-27T19:53:12.826Z,44.60
2018-03-27T19:55:39.716Z,44.60
2018-03-27T19:58:05.960Z,44.60
2018-03-27T20:00:32.453Z,44.40
2018-03-27T20:02:59.037Z,44.50
2018-03-27T20:05:25.269Z,44.60
2018-03-27T20:07:51.533Z,44.70
2018-03-27T20:10:17.801Z,44.70
2018-03-27T20:12:44.023Z,44.60
2018-03-27T20:15:10.273Z,44.70
2018-03-27T20:17:36.509Z,44.80
2018-03-27T20:20:03.657Z,44.50
2018-03-27T20:22:29.913Z,44.40
2018-03-27T20:24:56.139Z,44.30
2018-03-27T20:27:22.366Z,44.30
2018-03-27T20:29:48.697Z,44.30
2018-03-27T20:32:14.952Z,44.20
2018-03-27T20:34:41.173Z,44.20
2018-03-27T20:37:07.425Z,44.20
2018-03-27T20:39:33.671Z,44.20
2018-03-27T20:41:59.976Z,44.20
2018-03-27T20:44:26.802Z,44.20
2018-03-27T20:46:53.024Z,44.20
2018-03-27T20:49:19.249Z,44.10
2018-03-27T20:51:45.489Z,44.20
2018-03-27T20:54:11.703Z,44.10
2018-03-27T20:56:37.978Z,44.10
2018-03-27T20:59:04.225Z,44.10
2018-03-27T21:01:30.459Z,44.10
2018-03-27T21:03:57.147Z,44.10
2018-03-27T21:06:23.376Z,44.10
2018-03-27T21:08:49.634Z,44.10
2018-03-27T21:11:16.630Z,44.10
2018-03-27T21:13:42.875Z,44.00
2018-03-27T21:16:09.146Z,44.00
2018-03-27T21:18:35.383Z,44.00
2018-03-27T21:21:01.658Z,44.00
2018-03-27T21:23:28.646Z,44.00
2018-03-27T21:25:54.875Z,44.00
2018-03-27T21:28:21.100Z,44.00
2018-03-27T21:30:47.343Z,43.90
2018-03-27T21:33:13.609Z,43.90
2018-03-27T21:35:39.828Z,43.90
2018-03-27T21:38:06.077Z,43.90
2018-03-27T21:40:32.304Z,43.90
2018-03-27T21:42:58.548Z,44.00
2018-03-27T21:45:24.804Z,43.90
2018-03-27T21:47:51.205Z,43.90
2018-03-27T21:50:17.738Z,43.90
2018-03-27T21:52:43.993Z,43.90
2018-03-27T21:55:10.234Z,43.90
2018-03-27T21:57:36.494Z,43.90
2018-03-27T22:00:03.493Z,43.90
2018-03-27T22:02:29.729Z,43.90
2018-03-27T22:04:55.973Z,43.90
2018-03-27T22:07:22.203Z,43.90
2018-03-27T22:09:48.464Z,43.90
2018-03-27T22:12:14.698Z,43.90
2018-03-27T22:14:41.584Z,43.90
2018-03-27T22:17:07.829Z,43.90
2018-03-27T22:19:34.887Z,43.90
2018-03-27T22:22:01.209Z,43.90
2018-03-27T22:24:28.196Z,43.90
2018-03-27T22:26:54.418Z,44.50
2018-03-27T22:29:20.665Z,43.90
2018-03-27T22:31:46.918Z,43.90
2018-03-27T22:34:13.191Z,43.90
2018-03-27T22:36:39.420Z,43.90
2018-03-27T22:39:05.650Z,43.90
2018-03-27T22:41:32.977Z,43.90
2018-03-27T22:43:59.208Z,43.80
2018-03-27T22:46:25.473Z,43.80
2018-03-27T22:48:51.712Z,43.80
2018-03-27T22:51:18.128Z,43.80
2018-03-27T22:53:44.415Z,43.90
2018-03-27T22:56:10.635Z,43.80
2018-03-27T22:58:36.904Z,43.80
2018-03-27T23:01:03.124Z,43.80
2018-03-27T23:03:29.376Z,43.80
2018-03-27T23:05:55.637Z,43.80
2018-03-27T23:08:21.883Z,43.80
2018-03-27T23:10:48.858Z,43.80
2018-03-27T23:13:15.082Z,43.80
2018-03-27T23:15:41.311Z,43.80
2018-03-27T23:18:07.539Z,43.80
2018-03-27T23:20:33.777Z,43.70
2018-03-27T23:23:00.061Z,43.90
2018-03-27T23:25:26.597Z,43.80
2018-03-27T23:27:52.862Z,43.90
